Time;durP1;ratioP1;P1;durP2;ratioP2;P2;SDS_P1;SDS_P2;PMS_P1;PMS_P2;Temp;Humidity;BMP_temperature;BMP_pressure;BME280_temperature;BME280_humidity;BME280_pressure;Samples;Min_cycle;Max_cycle;Signal;HPM_P1;HPM_P2
2023/07/19 00:01:10;;;;;;;5.60;3.40;;;;;;;17.42;59.44;99233.42;107614;1257;73808;-39
2023/07/19 00:03:38;;;;;;;5.10;3.40;;;;;;;17.32;59.56;99234.63;107581;1257;66271;-39
2023/07/19 00:06:05;;;;;;;7.10;3.40;;;;;;;17.23;59.79;99240.11;107605;1253;72683;-39
2023/07/19 00:08:33;;;;;;;5.80;3.30;;;;;;;17.12;60.15;99237.34;107610;1253;60295;-39
2023/07/19 00:11:00;;;;;;;9.50;3.20;;;;;;;17.01;60.35;99238.45;107613;1251;60378;-39
2023/07/19 00:13:28;;;;;;;5.00;3.40;;;;;;;16.91;60.70;99240.88;107643;1251;73872;-38
2023/07/19 00:15:56;;;;;;;7.70;3.20;;;;;;;16.83;60.93;99240.33;107612;1253;66364;-39
2023/07/19 00:18:23;;;;;;;5.40;2.90;;;;;;;16.74;61.21;99240.63;107600;1253;71397;-38
2023/07/19 00:20:51;;;;;;;4.40;3.60;;;;;;;16.68;61.41;99238.89;107620;1252;60327;-39
2023/07/19 00:23:18;;;;;;;4.60;3.20;;;;;;;16.62;61.53;99239.31;107649;1253;59580;-39
2023/07/19 00:25:46;;;;;;;7.90;3.30;;;;;;;16.62;61.70;99238.23;107613;1257;73796;-39
2023/07/19 00:28:13;;;;;;;8.80;3.00;;;;;;;16.68;61.72;99237.48;107623;1253;66428;-39
2023/07/19 00:30:41;;;;;;;4.30;3.30;;;;;;;16.74;61.84;99239.15;107605;1252;71435;-39
2023/07/19 00:33:09;;;;;;;4.10;3.30;;;;;;;16.75;61.67;99234.91;107587;1253;60399;-39
2023/07/19 00:35:43;;;;;;;6.80;2.80;;;;;;;16.73;61.42;99234.46;107661;1251;60337;-39
2023/07/19 00:38:14;;;;;;;4.60;3.10;;;;;;;16.71;61.33;99235.09;107573;1253;73827;-39
2023/07/19 00:40:42;;;;;;;4.10;2.90;;;;;;;16.72;61.35;99242.38;107595;1252;67579;-39
2023/07/19 00:43:10;;;;;;;7.60;3.10;;;;;;;16.73;61.23;99241.50;107624;1253;73114;-39
2023/07/19 00:45:41;;;;;;;5.10;2.90;;;;;;;16.68;60.97;99241.70;107619;1253;60332;-39
2023/07/19 00:48:09;;;;;;;5.50;3.30;;;;;;;16.62;61.04;99243.54;107637;1253;60293;-39
2023/07/19 00:50:37;;;;;;;5.40;3.10;;;;;;;16.56;61.05;99242.45;107475;1251;73115;-39
2023/07/19 00:53:05;;;;;;;4.30;2.80;;;;;;;16.48;61.22;99239.46;107663;1253;66467;-39
2023/07/19 00:55:32;;;;;;;6.60;3.20;;;;;;;16.42;61.30;99234.51;107640;1254;72718;-39
2023/07/19 00:58:00;;;;;;;6.90;2.70;;;;;;;16.39;61.39;99229.05;107569;1252;60409;-39
2023/07/19 01:00:28;;;;;;;4.30;2.90;;;;;;;16.39;61.50;99226.86;107635;1253;59597;-39
2023/07/19 01:02:57;;;;;;;4.80;2.90;;;;;;;16.46;61.59;99222.67;107712;1258;73888;-39
2023/07/19 01:05:26;;;;;;;6.60;3.00;;;;;;;16.51;61.62;99221.61;107635;1253;67594;-39
2023/07/19 01:07:53;;;;;;;5.30;3.30;;;;;;;16.54;61.55;99221.98;107532;1253;72706;-39
2023/07/19 01:10:23;;;;;;;6.60;3.40;;;;;;;16.59;61.45;99221.17;107622;1256;60446;-39
2023/07/19 01:13:11;;;;;;;6.50;3.10;;;;;;;16.61;61.59;99219.62;107669;1258;60390;-39
2023/07/19 01:15:40;;;;;;;5.40;3.30;;;;;;;16.60;61.49;99217.68;107627;1253;73824;-39
2023/07/19 01:18:08;;;;;;;6.00;3.20;;;;;;;16.58;61.35;99216.42;107443;1253;67605;-39
2023/07/19 01:20:36;;;;;;;5.20;3.50;;;;;;;16.56;61.35;99215.65;107481;1252;72651;-38
2023/07/19 01:23:04;;;;;;;9.30;3.20;;;;;;;16.60;61.49;99215.95;107558;1253;60401;-39
2023/07/19 01:25:32;;;;;;;4.40;2.80;;;;;;;16.61;61.69;99215.86;107629;1253;60031;-39
2023/07/19 01:28:00;;;;;;;5.70;3.00;;;;;;;16.61;61.95;99216.97;107510;1253;73858;-39
2023/07/19 01:30:28;;;;;;;6.70;2.90;;;;;;;16.62;62.08;99209.67;107519;1253;67572;-39
2023/07/19 01:32:55;;;;;;;5.10;2.90;;;;;;;16.66;62.11;99208.79;107480;1253;72723;-39
2023/07/19 01:35:23;;;;;;;5.00;3.00;;;;;;;16.70;62.44;99206.48;107532;1253;60409;-39
2023/07/19 01:37:52;;;;;;;5.40;3.40;;;;;;;16.73;62.47;99208.89;107522;1253;60394;-39
2023/07/19 01:40:21;;;;;;;6.50;3.50;;;;;;;16.74;62.66;99208.27;107513;1252;72691;-39
2023/07/19 01:42:51;;;;;;;6.50;3.40;;;;;;;16.73;62.55;99200.75;107536;1253;66423;-39
2023/07/19 01:45:20;;;;;;;6.40;3.40;;;;;;;16.72;62.43;99196.38;107552;1257;70474;-39
2023/07/19 01:47:47;;;;;;;5.30;3.30;;;;;;;16.66;62.02;99202.45;107525;1258;60534;-39
2023/07/19 01:53:00;;;;;;;6.90;3.50;;;;;;;16.49;62.31;99203.27;104084;1291;600664;-38
2023/07/19 01:55:27;;;;;;;8.80;3.60;;;;;;;16.43;62.19;99199.63;106549;1267;60121;-39
2023/07/19 01:57:54;;;;;;;5.10;3.50;;;;;;;16.41;62.17;99205.90;106448;1267;60094;-39
2023/07/19 02:00:22;;;;;;;6.40;3.50;;;;;;;16.39;62.15;99204.42;106530;1267;70930;-38
2023/07/19 02:02:52;;;;;;;5.90;3.20;;;;;;;16.41;62.21;99200.73;106442;1270;66626;-39
2023/07/19 02:05:20;;;;;;;8.40;3.80;;;;;;;16.44;62.16;99201.26;106439;1272;72700;-39
2023/07/19 02:07:48;;;;;;;6.80;4.00;;;;;;;16.44;62.32;99199.93;106485;1265;182586;-39
2023/07/19 02:10:16;;;;;;;5.90;3.90;;;;;;;16.41;62.20;99201.20;106561;1265;60052;-39
2023/07/19 02:12:43;;;;;;;6.30;3.80;;;;;;;16.38;62.15;99198.95;106542;1266;72279;-39
2023/07/19 02:15:11;;;;;;;7.30;3.80;;;;;;;16.34;62.28;99200.40;106571;1263;66948;-39
2023/07/19 02:17:39;;;;;;;7.50;3.70;;;;;;;16.31;62.42;99198.78;106575;1266;71454;-39
2023/07/19 02:20:07;;;;;;;8.10;3.70;;;;;;;16.28;62.38;99199.11;106647;1269;59490;-39
2023/07/19 02:22:35;;;;;;;7.30;3.90;;;;;;;16.19;62.51;99206.04;106752;1267;59800;-39
2023/07/19 02:25:03;;;;;;;6.20;3.40;;;;;;;16.13;62.70;99207.41;106544;1263;73127;-39
2023/07/19 02:27:32;;;;;;;5.90;3.60;;;;;;;16.06;63.00;99205.42;106655;1264;67238;-39
2023/07/19 02:30:02;;;;;;;7.60;3.90;;;;;;;16.01;63.11;99199.98;106628;1264;71506;-39
2023/07/19 02:32:30;;;;;;;7.10;3.60;;;;;;;16.04;63.07;99204.64;106672;1266;60257;-38
2023/07/19 02:34:58;;;;;;;8.00;3.50;;;;;;;16.04;63.13;99199.25;106650;1269;60049;-39
2023/07/19 02:37:25;;;;;;;6.70;3.30;;;;;;;16.02;63.24;99195.98;106743;1264;73108;-38
2023/07/19 02:39:53;;;;;;;6.70;3.40;;;;;;;16.01;63.44;99190.52;106573;1265;67582;-39
2023/07/19 02:42:20;;;;;;;9.80;4.10;;;;;;;16.05;63.77;99189.17;106560;1267;72729;-39
2023/07/19 02:44:49;;;;;;;6.30;3.70;;;;;;;16.10;63.89;99188.83;106595;1267;59946;-38
2023/07/19 02:47:17;;;;;;;4.90;3.30;;;;;;;16.14;63.78;99187.95;106677;1265;59226;-38
2023/07/19 02:49:44;;;;;;;7.40;3.90;;;;;;;16.15;63.92;99189.03;106628;1265;71862;-39
2023/07/19 02:52:12;;;;;;;7.30;3.70;;;;;;;16.18;63.89;99189.02;106591;1266;67926;-39
2023/07/19 02:54:39;;;;;;;5.20;3.80;;;;;;;16.22;63.74;99192.50;106670;1264;71779;-39
2023/07/19 02:57:07;;;;;;;7.70;3.80;;;;;;;16.29;63.50;99193.39;106667;1265;60397;-39
2023/07/19 02:59:34;;;;;;;7.10;3.60;;;;;;;16.31;63.16;99192.38;106638;1266;60130;-39
2023/07/19 03:02:02;;;;;;;6.30;3.50;;;;;;;16.30;63.02;99190.42;106651;1266;71956;-39
2023/07/19 03:04:30;;;;;;;5.10;3.50;;;;;;;16.26;63.03;99193.96;106670;1265;68077;-39
2023/07/19 03:06:58;;;;;;;8.40;3.50;;;;;;;16.20;63.40;99195.96;106672;1265;72741;-39
2023/07/19 03:09:26;;;;;;;5.60;3.40;;;;;;;16.17;63.71;99195.59;106726;1265;59592;-39
2023/07/19 03:11:54;;;;;;;6.50;3.40;;;;;;;16.13;63.83;99204.45;106723;1265;60040;-39
2023/07/19 03:14:22;;;;;;;7.90;3.80;;;;;;;16.03;63.81;99203.09;106772;1265;71852;-38
2023/07/19 03:16:50;;;;;;;6.70;3.30;;;;;;;15.96;63.96;99206.66;106657;1267;67602;-39
2023/07/19 03:19:18;;;;;;;6.70;3.70;;;;;;;15.97;64.02;99206.80;106615;1267;70479;-39
2023/07/19 03:21:46;;;;;;;7.20;3.70;;;;;;;16.00;64.02;99199.27;106622;1267;59679;-38
2023/07/19 03:24:13;;;;;;;6.20;3.80;;;;;;;16.03;63.99;99201.30;106613;1267;60118;-38
2023/07/19 03:26:41;;;;;;;7.80;3.50;;;;;;;16.07;63.91;99203.45;106580;1267;72344;-39
2023/07/19 03:29:08;;;;;;;6.40;3.60;;;;;;;16.09;63.94;99201.49;106621;1268;67584;-39
2023/07/19 03:31:36;;;;;;;7.30;3.50;;;;;;;16.12;64.19;99198.66;106511;1268;71493;-39
2023/07/19 03:34:03;;;;;;;5.00;3.30;;;;;;;16.16;64.20;99198.02;106600;1267;60127;-39
2023/07/19 03:36:31;;;;;;;6.60;3.60;;;;;;;16.17;64.09;99197.78;106555;1267;60084;-39
2023/07/19 03:38:59;;;;;;;8.00;3.20;;;;;;;16.16;64.22;99198.02;106436;1268;73542;-39
2023/07/19 03:41:29;;;;;;;;;;;;;;;16.17;64.34;99197.16;107056;1267;66294;-39
2023/07/19 03:43:56;;;;;;;5.50;3.50;;;;;;;16.20;64.39;99193.70;106397;1267;72731;-39
2023/07/19 03:46:25;;;;;;;5.30;3.70;;;;;;;16.21;64.71;99188.68;106569;1267;59380;-39
2023/07/19 03:48:53;;;;;;;6.90;3.40;;;;;;;16.26;64.83;99187.48;106585;1267;59466;-39
2023/07/19 03:51:20;;;;;;;6.90;3.50;;;;;;;16.31;64.86;99183.85;106639;1266;71789;-39
2023/07/19 03:53:49;;;;;;;6.40;3.50;;;;;;;16.37;65.04;99187.64;106598;1265;66372;-39
2023/07/19 03:56:16;;;;;;;5.60;3.60;;;;;;;16.42;65.15;99188.70;106662;1266;72696;-40
2023/07/19 03:58:48;;;;;;;6.20;3.70;;;;;;;16.45;65.25;99184.05;106592;1267;60410;-39
2023/07/19 04:01:16;;;;;;;5.00;3.50;;;;;;;16.57;65.28;99186.80;106630;1267;59695;-39
2023/07/19 04:03:44;;;;;;;4.70;3.50;;;;;;;16.68;65.41;99187.50;106575;1267;73064;-39
2023/07/19 04:06:16;;;;;;;5.20;3.50;;;;;;;16.80;65.23;99189.42;106560;1267;68381;-39
2023/07/19 04:08:44;;;;;;;4.90;3.70;;;;;;;16.89;64.95;99187.30;106664;1265;72696;-39
2023/07/19 04:11:12;;;;;;;4.70;3.20;;;;;;;16.97;64.89;99190.60;106472;1267;60185;-39
2023/07/19 04:13:40;;;;;;;4.50;3.50;;;;;;;17.04;65.09;99190.45;106645;1266;60035;-39
2023/07/19 04:16:08;;;;;;;4.00;3.30;;;;;;;17.10;65.15;99187.95;106645;1270;72851;-39
2023/07/19 04:18:35;;;;;;;5.10;3.70;;;;;;;17.16;65.19;99183.67;106569;1267;67590;-39
2023/07/19 04:21:03;;;;;;;5.50;3.10;;;;;;;17.26;65.22;99189.90;106494;1267;72726;-39
2023/07/19 04:23:30;;;;;;;4.60;3.30;;;;;;;17.38;64.87;99183.91;106534;1265;60390;-39
2023/07/19 04:25:59;;;;;;;6.60;3.40;;;;;;;17.47;64.63;99184.98;106622;1265;59416;-39
2023/07/19 04:28:28;;;;;;;8.60;3.10;;;;;;;17.54;64.68;99186.31;106731;1265;71853;-39
2023/07/19 04:30:56;;;;;;;5.00;3.30;;;;;;;17.58;64.66;99184.30;106627;1265;67904;-39
2023/07/19 04:33:25;;;;;;;6.30;3.30;;;;;;;17.65;64.34;99182.75;106670;1267;71442;-39
2023/07/19 04:35:53;;;;;;;4.50;3.30;;;;;;;17.69;63.95;99183.73;106658;1267;59605;-39
2023/07/19 04:38:21;;;;;;;4.60;3.40;;;;;;;17.72;64.39;99178.50;106644;1270;59978;-39
2023/07/19 04:40:49;;;;;;;6.20;3.50;;;;;;;17.82;64.92;99177.59;106663;1265;70849;-40
2023/07/19 04:43:18;;;;;;;8.40;3.90;;;;;;;17.95;65.33;99177.19;106647;1265;66448;-39
2023/07/19 04:45:51;;;;;;;5.80;4.40;;;;;;;18.05;65.58;99173.66;106674;1265;71396;-40
2023/07/19 04:48:18;;;;;;;6.30;4.60;;;;;;;18.13;65.65;99172.54;106675;1266;60119;-39
2023/07/19 04:50:46;;;;;;;8.80;4.30;;;;;;;18.21;65.28;99175.94;106572;1267;59730;-39
2023/07/19 04:53:13;;;;;;;7.20;3.90;;;;;;;18.30;64.51;99170.86;106640;1267;73066;-39
2023/07/19 04:55:42;;;;;;;10.30;4.40;;;;;;;18.36;64.80;99173.83;106643;1268;67620;-39
2023/07/19 04:58:10;;;;;;;9.20;4.30;;;;;;;18.45;64.94;99175.02;106602;1266;71379;-39
2023/07/19 05:00:38;;;;;;;10.10;4.00;;;;;;;18.54;64.71;99174.73;106579;1271;61697;-39
2023/07/19 05:03:06;;;;;;;5.30;3.70;;;;;;;18.65;64.20;99170.56;106573;1265;60032;-39
2023/07/19 05:05:33;;;;;;;5.70;3.90;;;;;;;18.72;64.16;99171.16;106567;1265;73110;-39
2023/07/19 05:08:04;;;;;;;6.80;3.90;;;;;;;18.80;63.86;99173.52;106617;1265;66923;-39
2023/07/19 05:10:36;;;;;;;6.90;4.10;;;;;;;18.90;64.15;99175.00;106557;1267;72723;-39
2023/07/19 05:13:04;;;;;;;8.00;4.40;;;;;;;18.99;64.20;99177.66;106622;1266;59673;-39
2023/07/19 05:15:34;;;;;;;;;;;;;;;19.07;63.36;99179.55;106614;1267;59605;-39
2023/07/19 05:18:05;;;;;;;5.20;4.00;;;;;;;19.08;62.67;99181.66;106527;1267;73084;-39
2023/07/19 05:20:33;;;;;;;10.10;4.30;;;;;;;19.11;63.13;99188.20;106547;1267;68115;-39
2023/07/19 05:23:00;;;;;;;11.00;4.00;;;;;;;19.24;62.56;99187.33;106580;1267;72682;-39
2023/07/19 05:25:28;;;;;;;5.90;3.70;;;;;;;19.36;62.80;99185.69;106569;1267;60064;-39
2023/07/19 05:27:56;;;;;;;5.00;3.30;;;;;;;19.46;61.47;99184.09;106588;1267;60021;-39
2023/07/19 05:30:23;;;;;;;6.60;3.90;;;;;;;19.56;60.83;99180.93;106479;1271;73565;-39
2023/07/19 05:32:51;;;;;;;8.20;3.80;;;;;;;19.65;60.39;99180.67;106597;1268;67605;-39
2023/07/19 05:35:19;;;;;;;7.50;3.90;;;;;;;19.74;60.45;99180.09;106676;1265;71399;-39
2023/07/19 05:37:46;;;;;;;5.30;3.60;;;;;;;19.82;59.17;99178.95;106649;1266;59732;-39
2023/07/19 05:40:14;;;;;;;7.50;3.30;;;;;;;19.89;58.73;99175.04;106608;1266;60049;-39
2023/07/19 05:42:42;;;;;;;8.60;3.80;;;;;;;19.96;58.63;99178.48;106570;1267;73068;-39
2023/07/19 05:45:10;;;;;;;5.10;3.40;;;;;;;20.04;57.73;99178.56;106581;1267;66508;-40
2023/07/19 05:47:37;;;;;;;4.90;3.20;;;;;;;20.10;57.34;99176.21;106688;1266;71454;-39
2023/07/19 05:50:06;;;;;;;4.30;3.10;;;;;;;20.16;57.37;99175.20;106703;1266;60422;-39
2023/07/19 05:52:33;;;;;;;5.30;3.80;;;;;;;20.24;56.95;99173.15;106760;1266;59317;-39
2023/07/19 05:55:01;;;;;;;4.10;3.10;;;;;;;20.30;56.92;99168.52;106723;1265;72295;-40
2023/07/19 05:57:32;;;;;;;5.70;3.40;;;;;;;20.39;55.87;99167.08;106716;1270;67599;-39
2023/07/19 06:00:06;;;;;;;7.10;3.50;;;;;;;20.45;56.08;99170.26;106687;1266;71779;-39
2023/07/19 06:02:47;;;;;;;6.30;3.40;;;;;;;20.53;56.72;99167.61;106757;1266;60353;-39
2023/07/19 06:05:25;;;;;;;6.10;3.40;;;;;;;20.60;56.42;99165.46;106732;1266;60165;-39
2023/07/19 06:07:52;;;;;;;3.80;2.80;;;;;;;20.69;55.89;99166.17;106732;1266;73893;-40
2023/07/19 06:10:20;;;;;;;4.50;3.30;;;;;;;20.79;55.34;99162.53;106710;1265;66342;-40
2023/07/19 06:12:49;;;;;;;4.60;3.10;;;;;;;20.88;55.06;99157.50;106636;1266;72668;-39
2023/07/19 06:15:17;;;;;;;4.80;2.90;;;;;;;20.98;53.93;99152.36;106570;1270;60551;-39
2023/07/19 06:17:45;;;;;;;5.20;3.10;;;;;;;21.06;53.61;99151.83;106606;1265;60548;-39
2023/07/19 06:20:13;;;;;;;7.20;3.30;;;;;;;21.14;53.05;99150.85;106668;1267;73893;-39
2023/07/19 06:22:41;;;;;;;4.60;3.50;;;;;;;21.21;53.06;99145.52;106723;1265;67628;-39
2023/07/19 06:25:09;;;;;;;6.10;3.60;;;;;;;21.28;53.70;99137.93;106723;1265;72706;-39
2023/07/19 06:27:36;;;;;;;4.60;3.00;;;;;;;21.37;54.29;99136.42;106692;1266;60537;-39
2023/07/19 06:30:05;;;;;;;3.00;2.50;;;;;;;21.45;52.97;99134.85;106512;1267;60532;-40
2023/07/19 06:32:33;;;;;;;4.80;3.00;;;;;;;21.53;51.38;99132.90;106769;1266;73850;-40
2023/07/19 06:35:01;;;;;;;5.10;3.00;;;;;;;21.59;51.68;99128.70;106596;1266;67650;-39
2023/07/19 06:37:28;;;;;;;3.60;2.70;;;;;;;21.65;50.98;99125.52;106664;1267;72622;-39
2023/07/19 06:39:56;;;;;;;7.10;2.90;;;;;;;21.71;50.40;99127.15;106671;1269;60429;-39
2023/07/19 06:42:23;;;;;;;2.90;2.50;;;;;;;21.76;51.34;99127.08;106566;1265;60429;-39
2023/07/19 06:44:53;;;;;;;6.00;3.20;;;;;;;21.81;50.68;99125.89;106656;1265;72645;-39
2023/07/19 06:47:21;;;;;;;2.90;2.50;;;;;;;21.87;50.00;99124.16;106636;1266;67921;-39
2023/07/19 06:49:48;;;;;;;10.00;3.00;;;;;;;21.92;49.34;99117.39;106729;1263;76167;-39
2023/07/19 06:52:16;;;;;;;3.90;2.50;;;;;;;21.97;49.76;99109.95;106703;1267;60480;-39
2023/07/19 06:54:46;;;;;;;9.10;2.50;;;;;;;22.05;50.01;99108.45;106769;1262;61017;-40
2023/07/19 06:57:13;;;;;;;3.40;2.50;;;;;;;22.16;49.65;99103.33;106669;1264;72584;-40
2023/07/19 06:59:41;;;;;;;9.50;2.90;;;;;;;22.27;49.19;99102.10;106601;1268;67586;-40
2023/07/19 07:02:08;;;;;;;4.70;2.50;;;;;;;22.36;49.53;99102.50;106690;1264;72722;-39
2023/07/19 07:04:36;;;;;;;5.80;2.10;;;;;;;22.44;47.31;99102.20;106639;1264;60423;-40
2023/07/19 07:07:04;;;;;;;3.60;2.20;;;;;;;22.52;46.44;99096.27;106738;1264;60497;-40
2023/07/19 07:09:31;;;;;;;5.00;2.20;;;;;;;22.57;45.52;99099.36;106770;1264;71987;-40
2023/07/19 07:11:59;;;;;;;3.80;2.20;;;;;;;22.63;46.33;99099.14;106670;1268;67624;-39
2023/07/19 07:14:26;;;;;;;3.50;1.70;;;;;;;22.70;44.42;99095.50;106701;1265;72812;-39
2023/07/19 07:16:54;;;;;;;7.30;2.30;;;;;;;22.76;44.11;99092.33;106763;1264;60360;-40
2023/07/19 07:19:22;;;;;;;3.00;1.80;;;;;;;22.83;44.74;99091.45;106745;1264;60529;-40
2023/07/19 07:21:49;;;;;;;3.20;1.90;;;;;;;22.90;44.27;99083.86;106674;1264;73619;-40
2023/07/19 07:24:17;;;;;;;5.00;1.90;;;;;;;22.96;44.47;99093.28;106804;1265;67592;-40
2023/07/19 07:26:45;;;;;;;3.80;1.90;;;;;;;23.03;43.89;99087.34;106838;1264;71778;-40
2023/07/19 07:29:13;;;;;;;4.70;2.20;;;;;;;23.11;44.76;99085.65;106720;1264;60564;-40
2023/07/19 07:31:41;;;;;;;2.60;1.90;;;;;;;23.17;44.26;99092.35;106719;1264;60348;-40
2023/07/19 07:34:09;;;;;;;5.10;2.30;;;;;;;23.24;43.56;99090.12;106759;1264;73863;-40
2023/07/19 07:36:36;;;;;;;3.70;1.80;;;;;;;23.33;43.23;99089.31;106690;1264;66769;-40
2023/07/19 07:39:05;;;;;;;3.90;2.00;;;;;;;23.42;43.15;99091.99;106694;1264;72737;-40
2023/07/19 07:41:33;;;;;;;3.00;1.80;;;;;;;23.47;42.51;99095.92;106728;1264;60388;-40
2023/07/19 07:44:01;;;;;;;5.10;1.90;;;;;;;23.44;42.76;99091.77;106761;1263;60514;-40
2023/07/19 07:46:29;;;;;;;4.20;1.90;;;;;;;23.37;43.16;99086.73;106673;1266;73866;-40
2023/07/19 07:48:59;;;;;;;3.80;1.60;;;;;;;23.37;42.39;99085.28;106830;1263;66622;-40
2023/07/19 07:51:31;;;;;;;2.40;1.30;;;;;;;23.46;40.28;99077.36;106752;1268;71780;-41
2023/07/19 07:53:59;;;;;;;2.70;1.60;;;;;;;23.55;39.25;99077.11;106730;1263;62321;-40
2023/07/19 07:56:31;;;;;;;4.00;1.70;;;;;;;23.60;39.33;99081.27;106678;1263;59268;-40
2023/07/19 07:59:05;;;;;;;1.90;1.40;;;;;;;23.63;39.51;99075.45;106766;1265;72625;-40
2023/07/19 08:01:32;;;;;;;2.30;1.50;;;;;;;23.64;39.90;99080.63;106684;1265;67536;-40
2023/07/19 08:04:01;;;;;;;5.50;1.40;;;;;;;23.68;38.65;99074.72;106540;1263;71434;-40
2023/07/19 08:06:28;;;;;;;5.30;1.40;;;;;;;23.79;37.99;99074.20;106510;1264;60512;-40
2023/07/19 08:08:56;;;;;;;2.10;1.50;;;;;;;23.96;37.54;99075.21;106664;1263;59675;-39
2023/07/19 08:11:26;;;;;;;1.70;1.30;;;;;;;24.12;36.65;99072.05;106810;1265;73844;-40
2023/07/19 08:13:54;;;;;;;3.70;1.30;;;;;;;24.25;35.71;99070.46;106705;1263;67598;-39
2023/07/19 08:16:21;;;;;;;1.90;1.10;;;;;;;24.35;35.91;99072.55;106702;1263;72766;-40
2023/07/19 08:18:49;;;;;;;4.20;1.30;;;;;;;24.42;36.29;99080.07;106700;1263;60684;-39
2023/07/19 08:21:16;;;;;;;3.10;1.30;;;;;;;24.47;34.37;99080.56;106664;1268;59544;-39
2023/07/19 08:24:00;;;;;;;2.10;1.30;;;;;;;24.51;35.29;99081.02;106798;1264;73860;-40
2023/07/19 08:26:28;;;;;;;2.70;1.20;;;;;;;24.58;35.44;99081.92;106808;1263;66611;-38
2023/07/19 08:28:55;;;;;;;3.20;1.40;;;;;;;24.67;35.70;99080.11;106842;1262;72726;-38
2023/07/19 08:31:23;;;;;;;3.70;1.40;;;;;;;24.80;35.17;99080.42;106800;1264;60438;-39
2023/07/19 08:33:52;;;;;;;1.20;1.00;;;;;;;24.90;34.55;99077.24;106862;1262;60491;-39
2023/07/19 08:36:20;;;;;;;2.10;1.20;;;;;;;24.89;34.18;99080.52;106760;1263;73831;-39
2023/07/19 08:38:48;;;;;;;3.80;1.50;;;;;;;24.78;34.53;99078.60;106690;1262;68076;-39
2023/07/19 08:41:18;;;;;;;3.60;1.40;;;;;;;24.68;34.65;99071.52;106822;1264;72661;-40
2023/07/19 08:43:46;;;;;;;3.70;1.60;;;;;;;24.73;34.68;99066.48;106743;1265;60922;-40
2023/07/19 08:46:17;;;;;;;3.30;1.30;;;;;;;24.83;35.78;99066.66;106821;1263;60283;-40
2023/07/19 08:48:47;;;;;;;2.40;1.30;;;;;;;24.92;35.03;99068.59;106790;1263;73840;-39
2023/07/19 08:51:15;;;;;;;3.00;1.60;;;;;;;24.94;35.73;99066.98;106723;1266;67597;-39
2023/07/19 08:53:43;;;;;;;2.50;1.30;;;;;;;24.94;35.53;99063.90;106748;1264;72725;-40
2023/07/19 08:56:11;;;;;;;5.50;1.40;;;;;;;24.92;35.32;99064.25;106692;1263;60436;-39
2023/07/19 08:58:40;;;;;;;2.40;1.20;;;;;;;24.91;35.47;99064.69;106773;1267;59601;-39
2023/07/19 09:01:08;;;;;;;2.20;1.30;;;;;;;24.97;35.49;99061.07;106731;1265;72680;-39
2023/07/19 09:03:35;;;;;;;2.60;1.30;;;;;;;25.04;34.93;99057.42;106613;1266;67336;-39
2023/07/19 09:06:03;;;;;;;4.50;1.40;;;;;;;25.08;35.65;99057.66;106660;1264;72703;-39
2023/07/19 09:08:38;;;;;;;5.60;1.50;;;;;;;25.08;35.27;99055.73;106808;1264;60252;-39
2023/07/19 09:11:06;;;;;;;5.80;1.60;;;;;;;25.01;35.31;99055.83;106846;1262;60042;-39
2023/07/19 09:13:36;;;;;;;2.50;1.50;;;;;;;24.95;35.61;99052.04;106805;1262;73866;-39
2023/07/19 09:16:06;;;;;;;3.40;1.40;;;;;;;24.98;35.37;99044.79;106799;1267;67910;-39
2023/07/19 09:18:35;;;;;;;2.80;1.60;;;;;;;25.09;34.58;99038.03;107457;1259;73137;-39
2023/07/19 09:21:04;;;;;;;;;;;;;;;25.23;35.52;99037.23;107158;1262;60506;-39
2023/07/19 09:23:38;;;;;;;2.70;1.40;;;;;;;25.33;34.71;99044.60;107078;1261;60304;-39
2023/07/19 09:26:07;;;;;;;2.70;1.20;;;;;;;25.39;35.11;99037.33;107061;1259;73978;-39
2023/07/19 09:28:34;;;;;;;3.30;1.50;;;;;;;25.52;35.02;99031.91;107040;1259;67907;-39
2023/07/19 09:31:03;;;;;;;4.20;1.80;;;;;;;25.63;33.97;99025.72;107019;1258;72998;-39
2023/07/19 09:33:34;;;;;;;1.80;1.20;;;;;;;25.69;34.19;99025.09;107072;1259;60499;-40
2023/07/19 09:36:02;;;;;;;2.70;1.20;;;;;;;25.71;32.95;99023.98;107071;1259;60867;-39
2023/07/19 09:38:29;;;;;;;3.20;1.30;;;;;;;25.64;32.79;99023.23;107033;1259;73890;-40
2023/07/19 09:40:57;;;;;;;2.50;1.40;;;;;;;25.50;33.90;99024.07;107023;1259;68051;-40
2023/07/19 09:43:25;;;;;;;2.20;1.50;;;;;;;25.45;34.44;99026.67;106895;1259;72716;-39
2023/07/19 09:45:52;;;;;;;1.70;1.40;;;;;;;25.40;34.05;99020.81;107040;1259;60424;-40
2023/07/19 09:48:23;;;;;;;1.40;1.30;;;;;;;25.35;34.13;99021.69;107040;1259;60053;-40
2023/07/19 09:50:50;;;;;;;9.30;1.60;;;;;;;25.33;34.66;99016.93;107040;1259;73876;-40
2023/07/19 09:53:22;;;;;;;2.20;1.50;;;;;;;25.34;35.01;99012.33;106916;1259;67652;-39
2023/07/19 09:55:52;;;;;;;4.10;1.60;;;;;;;25.36;34.44;99007.52;107081;1259;71415;-40
2023/07/19 09:58:19;;;;;;;3.30;1.50;;;;;;;25.35;34.43;99009.14;107088;1259;59648;-40
2023/07/19 10:00:47;;;;;;;2.00;1.40;;;;;;;25.33;34.64;99003.94;106878;1259;60513;-40
2023/07/19 10:03:19;;;;;;;2.80;1.40;;;;;;;25.35;34.68;99001.80;107056;1259;73937;-40
2023/07/19 10:05:56;;;;;;;5.10;1.50;;;;;;;25.34;34.57;98997.70;107049;1259;66781;-39
2023/07/19 10:08:24;;;;;;;5.80;1.50;;;;;;;25.33;35.28;99000.54;107050;1257;72698;-39
2023/07/19 10:11:00;;;;;;;2.60;1.40;;;;;;;25.27;34.37;98997.66;107045;1262;61113;-40
2023/07/19 10:13:31;;;;;;;3.20;1.40;;;;;;;25.19;34.38;98996.67;107080;1259;59783;-39
2023/07/19 10:15:59;;;;;;;2.20;1.50;;;;;;;25.26;35.03;98990.88;107056;1257;73826;-39
2023/07/19 10:18:29;;;;;;;2.10;1.50;;;;;;;25.44;34.15;98988.91;107069;1259;67914;-39
2023/07/19 10:21:01;;;;;;;2.50;1.40;;;;;;;25.64;33.57;98987.14;107160;1259;72804;-39
2023/07/19 10:23:34;;;;;;;2.70;1.50;;;;;;;25.78;33.08;98993.42;107120;1257;60272;-40
2023/07/19 10:26:06;;;;;;;2.10;1.60;;;;;;;25.91;32.75;98988.23;107056;1258;60300;-40
2023/07/19 10:28:34;;;;;;;1.70;1.30;;;;;;;26.05;33.22;98983.83;107098;1259;72586;-39
2023/07/19 10:31:03;;;;;;;2.20;1.40;;;;;;;26.19;32.21;98979.92;107076;1258;67633;-39
2023/07/19 10:33:53;;;;;;;2.00;1.20;;;;;;;26.36;32.04;98976.55;107038;1259;72692;-39
2023/07/19 10:36:21;;;;;;;2.80;1.50;;;;;;;26.39;31.08;98979.89;107094;1259;60397;-40
2023/07/19 10:38:49;;;;;;;2.90;1.30;;;;;;;26.42;31.86;98979.76;107081;1259;60330;-40
2023/07/19 10:41:19;;;;;;;2.20;1.20;;;;;;;26.45;31.99;98975.00;107085;1259;73163;-40
2023/07/19 10:43:47;;;;;;;3.80;1.30;;;;;;;26.43;30.94;98973.04;107112;1259;67587;-40
2023/07/19 10:46:21;;;;;;;3.50;1.20;;;;;;;26.35;30.52;98973.82;107122;1258;72666;-39
2023/07/19 10:48:53;;;;;;;3.10;1.40;;;;;;;26.23;30.96;98969.66;107099;1259;60332;-40
2023/07/19 10:51:21;;;;;;;3.60;1.30;;;;;;;26.12;31.00;98968.36;107049;1259;59587;-40
2023/07/19 10:53:56;;;;;;;2.80;1.30;;;;;;;26.08;31.37;98968.44;107050;1257;73986;-40
2023/07/19 10:56:25;;;;;;;3.20;1.10;;;;;;;26.15;31.62;98965.39;107066;1259;66761;-40
2023/07/19 10:58:57;;;;;;;2.60;1.00;;;;;;;26.34;32.08;98956.72;107104;1259;71451;-39
2023/07/19 11:01:28;;;;;;;1.90;1.10;;;;;;;26.72;31.50;98953.67;107086;1259;60435;-39
2023/07/19 11:04:01;;;;;;;3.70;1.10;;;;;;;27.16;31.05;98952.91;107075;1259;60458;-39
2023/07/19 11:06:28;;;;;;;1.70;1.10;;;;;;;27.44;28.80;98950.16;107066;1262;73880;-40
2023/07/19 11:09:06;;;;;;;2.00;1.10;;;;;;;27.42;28.32;98950.40;107094;1259;66880;-39
2023/07/19 11:11:36;;;;;;;2.20;1.30;;;;;;;27.37;29.47;98953.10;107097;1259;72029;-40
2023/07/19 11:14:04;;;;;;;3.30;1.40;;;;;;;27.45;30.77;98951.77;107149;1259;60540;-40
2023/07/19 11:16:32;;;;;;;3.20;1.40;;;;;;;27.66;29.57;98953.04;107065;1259;60312;-39
2023/07/19 11:18:59;;;;;;;2.50;1.50;;;;;;;27.87;28.90;98946.80;107114;1258;73825;-40
2023/07/19 11:21:27;;;;;;;4.70;1.40;;;;;;;28.15;29.16;98941.02;107099;1259;68341;-40
2023/07/19 11:23:55;;;;;;;1.80;1.30;;;;;;;28.45;27.61;98941.48;107047;1259;71890;-40
2023/07/19 11:26:22;;;;;;;2.70;1.50;;;;;;;28.62;28.07;98940.27;107037;1262;60425;-40
2023/07/19 11:28:55;;;;;;;3.20;1.30;;;;;;;28.83;28.22;98939.20;107075;1262;60305;-40
2023/07/19 11:31:33;;;;;;;2.60;1.20;;;;;;;29.12;28.22;98935.59;107080;1259;72091;-40
2023/07/19 11:34:14;;;;;;;2.20;1.30;;;;;;;29.33;26.18;98937.59;107021;1259;67602;-40
2023/07/19 11:36:43;;;;;;;2.60;1.40;;;;;;;29.28;26.86;98941.33;107057;1259;72680;-39